Kettle Island, Kentucky
Current Conditions -  °F | °C
As of 11:15 PM on Wednesday 26 Nov 2014 (Local Time) from KI35 Reporting Station
Overcast Overcast  
Wind Chill: 37°   Ceiling: 6000
Heat Index: 37°   Visibility: 10mi
Dew Point: 28°   Wind: 3mph
Humidity: 70%   Direction: 260°W
Pressure: 30"   Gusts: NA
Location:  36.79°N, 83.61°W
Report Text: KI35 270415Z AUTO 26003KT 10SM SCT048 BKN060 OVC090 03/M02 A3000 RMK AO1
Loading
Personal Weather Stations






























Interactive Weather Map New forecast layout! Learn more

10-Day Weather Forecast

Advertisements
Track Severe Weather on mobile